sensor_id;sensor_type;location;lat;lon;timestamp;P1;durP1;ratioP1;P2;durP2;ratioP2
52620;SDS011;38515;53.160;6.990;2023-02-02T00:00:13;10.30;;;9.25;;
52620;SDS011;38515;53.160;6.990;2023-02-02T00:02:39;38.35;;;10.23;;
52620;SDS011;38515;53.160;6.990;2023-02-02T00:05:05;23.30;;;10.30;;
52620;SDS011;38515;53.160;6.990;2023-02-02T00:07:32;11.95;;;9.57;;
52620;SDS011;38515;53.160;6.990;2023-02-02T00:09:57;20.40;;;10.48;;
52620;SDS011;38515;53.160;6.990;2023-02-02T00:12:23;13.13;;;10.13;;
52620;SDS011;38515;53.160;6.990;2023-02-02T00:14:49;12.88;;;9.23;;
52620;SDS011;38515;53.160;6.990;2023-02-02T00:17:15;12.90;;;9.93;;
52620;SDS011;38515;53.160;6.990;2023-02-02T00:19:41;17.92;;;9.90;;
52620;SDS011;38515;53.160;6.990;2023-02-02T00:22:07;8.75;;;7.15;;
52620;SDS011;38515;53.160;6.990;2023-02-02T00:24:32;17.45;;;8.45;;
52620;SDS011;38515;53.160;6.990;2023-02-02T00:26:58;16.05;;;8.57;;
52620;SDS011;38515;53.160;6.990;2023-02-02T00:29:27;12.07;;;7.68;;
52620;SDS011;38515;53.160;6.990;2023-02-02T00:31:54;14.07;;;7.90;;
52620;SDS011;38515;53.160;6.990;2023-02-02T00:34:21;20.35;;;7.43;;
52620;SDS011;38515;53.160;6.990;2023-02-02T00:36:47;13.27;;;8.30;;
52620;SDS011;38515;53.160;6.990;2023-02-02T00:39:20;15.65;;;7.20;;
52620;SDS011;38515;53.160;6.990;2023-02-02T00:41:49;24.80;;;7.10;;
52620;SDS011;38515;53.160;6.990;2023-02-02T00:44:15;12.18;;;7.13;;
52620;SDS011;38515;53.160;6.990;2023-02-02T00:46:59;14.25;;;7.93;;
52620;SDS011;38515;53.160;6.990;2023-02-02T00:49:25;14.13;;;8.40;;
52620;SDS011;38515;53.160;6.990;2023-02-02T00:51:51;15.23;;;8.23;;
52620;SDS011;38515;53.160;6.990;2023-02-02T00:54:17;8.23;;;7.40;;
52620;SDS011;38515;53.160;6.990;2023-02-02T00:56:43;15.98;;;7.53;;
52620;SDS011;38515;53.160;6.990;2023-02-02T00:59:09;16.92;;;8.88;;
52620;SDS011;38515;53.160;6.990;2023-02-02T01:01:35;22.55;;;7.47;;
52620;SDS011;38515;53.160;6.990;2023-02-02T01:04:01;10.45;;;7.32;;
52620;SDS011;38515;53.160;6.990;2023-02-02T01:06:27;16.23;;;8.15;;
52620;SDS011;38515;53.160;6.990;2023-02-02T01:08:53;15.40;;;6.57;;
52620;SDS011;38515;53.160;6.990;2023-02-02T01:11:19;12.38;;;5.90;;
52620;SDS011;38515;53.160;6.990;2023-02-02T01:13:45;9.43;;;5.55;;
52620;SDS011;38515;53.160;6.990;2023-02-02T01:16:11;14.57;;;5.75;;
52620;SDS011;38515;53.160;6.990;2023-02-02T01:18:37;14.00;;;7.25;;
52620;SDS011;38515;53.160;6.990;2023-02-02T01:21:04;17.88;;;7.85;;
52620;SDS011;38515;53.160;6.990;2023-02-02T01:23:33;14.10;;;8.90;;
52620;SDS011;38515;53.160;6.990;2023-02-02T01:26:01;18.05;;;9.80;;
52620;SDS011;38515;53.160;6.990;2023-02-02T01:28:28;21.85;;;10.82;;
52620;SDS011;38515;53.160;6.990;2023-02-02T01:30:55;17.23;;;9.52;;
52620;SDS011;38515;53.160;6.990;2023-02-02T01:33:22;19.80;;;10.07;;
52620;SDS011;38515;53.160;6.990;2023-02-02T01:35:49;20.20;;;10.00;;
52620;SDS011;38515;53.160;6.990;2023-02-02T01:38:17;10.55;;;9.68;;
52620;SDS011;38515;53.160;6.990;2023-02-02T01:40:44;15.13;;;10.70;;
52620;SDS011;38515;53.160;6.990;2023-02-02T01:43:25;9.68;;;8.63;;
52620;SDS011;38515;53.160;6.990;2023-02-02T01:45:53;23.42;;;9.52;;
52620;SDS011;38515;53.160;6.990;2023-02-02T01:48:22;17.65;;;11.57;;
52620;SDS011;38515;53.160;6.990;2023-02-02T01:50:52;18.00;;;10.38;;
52620;SDS011;38515;53.160;6.990;2023-02-02T01:53:23;27.50;;;9.10;;
52620;SDS011;38515;53.160;6.990;2023-02-02T01:55:49;22.08;;;8.13;;
52620;SDS011;38515;53.160;6.990;2023-02-02T01:58:17;18.02;;;8.73;;
52620;SDS011;38515;53.160;6.990;2023-02-02T02:00:46;30.02;;;10.75;;
52620;SDS011;38515;53.160;6.990;2023-02-02T02:03:14;9.57;;;8.77;;
52620;SDS011;38515;53.160;6.990;2023-02-02T02:05:47;30.80;;;9.13;;
52620;SDS011;38515;53.160;6.990;2023-02-02T02:08:27;26.75;;;10.77;;
52620;SDS011;38515;53.160;6.990;2023-02-02T02:11:04;20.35;;;11.05;;
52620;SDS011;38515;53.160;6.990;2023-02-02T02:13:31;42.58;;;13.93;;
52620;SDS011;38515;53.160;6.990;2023-02-02T02:18:54;26.48;;;24.38;;
52620;SDS011;38515;53.160;6.990;2023-02-02T02:25:16;22.02;;;19.95;;
52620;SDS011;38515;53.160;6.990;2023-02-02T02:36:23;30.65;;;13.35;;
52620;SDS011;38515;53.160;6.990;2023-02-02T02:39:09;15.38;;;7.18;;
52620;SDS011;38515;53.160;6.990;2023-02-02T02:41:48;15.77;;;8.10;;
52620;SDS011;38515;53.160;6.990;2023-02-02T02:44:17;41.83;;;8.05;;
52620;SDS011;38515;53.160;6.990;2023-02-02T02:46:45;16.20;;;8.02;;
52620;SDS011;38515;53.160;6.990;2023-02-02T02:49:14;19.27;;;8.00;;
52620;SDS011;38515;53.160;6.990;2023-02-02T03:05:16;11.85;;;4.22;;
52620;SDS011;38515;53.160;6.990;2023-02-02T03:08:15;11.93;;;5.47;;
52620;SDS011;38515;53.160;6.990;2023-02-02T03:10:46;11.02;;;5.07;;
52620;SDS011;38515;53.160;6.990;2023-02-02T03:13:13;15.63;;;5.30;;
52620;SDS011;38515;53.160;6.990;2023-02-02T03:15:41;15.63;;;4.35;;
52620;SDS011;38515;53.160;6.990;2023-02-02T03:18:08;8.23;;;4.82;;
52620;SDS011;38515;53.160;6.990;2023-02-02T03:20:36;10.77;;;4.72;;
52620;SDS011;38515;53.160;6.990;2023-02-02T03:23:04;8.30;;;4.22;;
52620;SDS011;38515;53.160;6.990;2023-02-02T03:25:30;23.88;;;7.18;;
52620;SDS011;38515;53.160;6.990;2023-02-02T03:27:56;17.40;;;6.22;;
52620;SDS011;38515;53.160;6.990;2023-02-02T03:30:23;11.15;;;5.65;;
52620;SDS011;38515;53.160;6.990;2023-02-02T03:32:49;8.90;;;6.78;;
52620;SDS011;38515;53.160;6.990;2023-02-02T03:35:16;17.10;;;8.48;;
52620;SDS011;38515;53.160;6.990;2023-02-02T03:37:44;15.80;;;6.68;;
52620;SDS011;38515;53.160;6.990;2023-02-02T03:40:11;7.47;;;4.82;;
52620;SDS011;38515;53.160;6.990;2023-02-02T03:42:37;30.33;;;9.32;;
52620;SDS011;38515;53.160;6.990;2023-02-02T03:45:04;26.83;;;9.05;;
52620;SDS011;38515;53.160;6.990;2023-02-02T03:47:30;23.45;;;9.70;;
52620;SDS011;38515;53.160;6.990;2023-02-02T03:49:56;12.88;;;7.15;;
52620;SDS011;38515;53.160;6.990;2023-02-02T03:52:23;18.20;;;5.88;;
52620;SDS011;38515;53.160;6.990;2023-02-02T03:54:49;23.35;;;6.45;;
52620;SDS011;38515;53.160;6.990;2023-02-02T03:57:18;10.85;;;6.43;;
52620;SDS011;38515;53.160;6.990;2023-02-02T03:59:44;19.83;;;7.38;;
52620;SDS011;38515;53.160;6.990;2023-02-02T04:02:10;29.13;;;6.50;;
52620;SDS011;38515;53.160;6.990;2023-02-02T04:04:36;13.10;;;5.60;;
52620;SDS011;38515;53.160;6.990;2023-02-02T04:07:02;26.08;;;6.45;;
52620;SDS011;38515;53.160;6.990;2023-02-02T04:09:28;17.05;;;5.13;;
52620;SDS011;38515;53.160;6.990;2023-02-02T04:11:54;13.73;;;5.43;;
52620;SDS011;38515;53.160;6.990;2023-02-02T04:14:20;37.38;;;11.88;;
52620;SDS011;38515;53.160;6.990;2023-02-02T04:16:46;20.02;;;7.60;;
52620;SDS011;38515;53.160;6.990;2023-02-02T04:19:12;7.05;;;6.45;;
52620;SDS011;38515;53.160;6.990;2023-02-02T04:21:38;26.83;;;7.63;;
52620;SDS011;38515;53.160;6.990;2023-02-02T04:24:05;11.57;;;7.15;;
52620;SDS011;38515;53.160;6.990;2023-02-02T04:26:32;27.60;;;7.30;;
52620;SDS011;38515;53.160;6.990;2023-02-02T04:28:57;16.35;;;4.28;;
52620;SDS011;38515;53.160;6.990;2023-02-02T04:31:23;16.92;;;5.10;;
52620;SDS011;38515;53.160;6.990;2023-02-02T04:33:49;22.77;;;7.18;;
52620;SDS011;38515;53.160;6.990;2023-02-02T04:36:15;6.15;;;4.13;;
52620;SDS011;38515;53.160;6.990;2023-02-02T04:38:41;13.25;;;4.18;;
52620;SDS011;38515;53.160;6.990;2023-02-02T04:41:08;23.52;;;4.60;;
52620;SDS011;38515;53.160;6.990;2023-02-02T04:43:36;5.90;;;2.88;;
52620;SDS011;38515;53.160;6.990;2023-02-02T04:46:03;6.93;;;4.10;;
52620;SDS011;38515;53.160;6.990;2023-02-02T04:48:29;9.27;;;3.20;;
52620;SDS011;38515;53.160;6.990;2023-02-02T04:51:02;8.95;;;2.47;;
52620;SDS011;38515;53.160;6.990;2023-02-02T04:53:31;4.03;;;2.13;;
52620;SDS011;38515;53.160;6.990;2023-02-02T04:55:57;8.50;;;2.50;;
52620;SDS011;38515;53.160;6.990;2023-02-02T04:58:29;11.57;;;2.60;;
52620;SDS011;38515;53.160;6.990;2023-02-02T05:00:55;3.53;;;2.05;;
52620;SDS011;38515;53.160;6.990;2023-02-02T05:03:21;5.50;;;2.15;;
52620;SDS011;38515;53.160;6.990;2023-02-02T05:05:46;4.22;;;2.58;;
52620;SDS011;38515;53.160;6.990;2023-02-02T05:08:12;6.53;;;2.53;;
52620;SDS011;38515;53.160;6.990;2023-02-02T05:10:39;6.03;;;2.78;;
52620;SDS011;38515;53.160;6.990;2023-02-02T05:13:08;4.63;;;2.13;;
52620;SDS011;38515;53.160;6.990;2023-02-02T05:15:34;4.13;;;2.75;;
52620;SDS011;38515;53.160;6.990;2023-02-02T05:18:00;1.85;;;1.70;;
52620;SDS011;38515;53.160;6.990;2023-02-02T05:20:26;2.10;;;1.85;;
52620;SDS011;38515;53.160;6.990;2023-02-02T05:22:52;6.95;;;2.63;;
52620;SDS011;38515;53.160;6.990;2023-02-02T05:25:18;7.07;;;2.03;;
52620;SDS011;38515;53.160;6.990;2023-02-02T05:27:44;8.70;;;2.53;;
52620;SDS011;38515;53.160;6.990;2023-02-02T05:30:11;6.78;;;2.03;;
52620;SDS011;38515;53.160;6.990;2023-02-02T05:32:38;1.95;;;1.85;;
52620;SDS011;38515;53.160;6.990;2023-02-02T05:35:04;1.85;;;1.65;;
52620;SDS011;38515;53.160;6.990;2023-02-02T05:37:30;6.18;;;2.60;;
52620;SDS011;38515;53.160;6.990;2023-02-02T05:39:56;3.35;;;2.42;;
52620;SDS011;38515;53.160;6.990;2023-02-02T05:42:22;4.05;;;1.77;;
52620;SDS011;38515;53.160;6.990;2023-02-02T05:44:48;2.40;;;1.63;;
52620;SDS011;38515;53.160;6.990;2023-02-02T05:47:14;9.63;;;2.28;;
52620;SDS011;38515;53.160;6.990;2023-02-02T05:49:40;1.67;;;1.50;;
52620;SDS011;38515;53.160;6.990;2023-02-02T05:52:06;4.72;;;2.45;;
52620;SDS011;38515;53.160;6.990;2023-02-02T05:54:33;9.70;;;2.15;;
52620;SDS011;38515;53.160;6.990;2023-02-02T05:56:59;2.45;;;2.20;;
52620;SDS011;38515;53.160;6.990;2023-02-02T05:59:27;9.05;;;3.08;;
52620;SDS011;38515;53.160;6.990;2023-02-02T06:01:53;2.47;;;2.28;;
52620;SDS011;38515;53.160;6.990;2023-02-02T06:04:19;4.38;;;2.38;;
52620;SDS011;38515;53.160;6.990;2023-02-02T06:06:45;5.18;;;2.47;;
52620;SDS011;38515;53.160;6.990;2023-02-02T06:09:12;2.45;;;2.25;;
52620;SDS011;38515;53.160;6.990;2023-02-02T06:11:38;8.40;;;2.67;;
52620;SDS011;38515;53.160;6.990;2023-02-02T06:14:04;5.63;;;2.65;;
52620;SDS011;38515;53.160;6.990;2023-02-02T06:16:30;4.32;;;1.95;;
52620;SDS011;38515;53.160;6.990;2023-02-02T06:18:56;4.32;;;1.98;;
52620;SDS011;38515;53.160;6.990;2023-02-02T06:21:22;1.92;;;1.83;;
52620;SDS011;38515;53.160;6.990;2023-02-02T06:23:49;3.25;;;2.40;;
52620;SDS011;38515;53.160;6.990;2023-02-02T06:26:15;4.43;;;2.22;;
52620;SDS011;38515;53.160;6.990;2023-02-02T06:28:42;2.40;;;2.03;;
52620;SDS011;38515;53.160;6.990;2023-02-02T06:31:12;5.32;;;2.40;;
52620;SDS011;38515;53.160;6.990;2023-02-02T06:33:39;2.15;;;1.80;;
52620;SDS011;38515;53.160;6.990;2023-02-02T06:36:05;3.28;;;1.67;;
52620;SDS011;38515;53.160;6.990;2023-02-02T06:38:32;2.40;;;2.30;;
52620;SDS011;38515;53.160;6.990;2023-02-02T06:40:58;6.30;;;2.50;;
52620;SDS011;38515;53.160;6.990;2023-02-02T06:43:25;2.67;;;2.25;;
52620;SDS011;38515;53.160;6.990;2023-02-02T06:45:51;9.88;;;2.85;;
52620;SDS011;38515;53.160;6.990;2023-02-02T06:48:17;4.07;;;2.00;;
52620;SDS011;38515;53.160;6.990;2023-02-02T06:50:43;8.27;;;2.97;;
52620;SDS011;38515;53.160;6.990;2023-02-02T06:53:08;6.90;;;2.13;;
52620;SDS011;38515;53.160;6.990;2023-02-02T06:55:34;11.15;;;2.05;;
52620;SDS011;38515;53.160;6.990;2023-02-02T06:58:00;2.03;;;1.80;;
52620;SDS011;38515;53.160;6.990;2023-02-02T07:00:27;2.80;;;2.55;;
52620;SDS011;38515;53.160;6.990;2023-02-02T07:02:54;5.03;;;2.53;;
52620;SDS011;38515;53.160;6.990;2023-02-02T07:05:20;4.95;;;3.20;;
52620;SDS011;38515;53.160;6.990;2023-02-02T07:07:48;4.53;;;2.85;;
52620;SDS011;38515;53.160;6.990;2023-02-02T07:10:15;3.05;;;2.72;;
52620;SDS011;38515;53.160;6.990;2023-02-02T07:12:42;3.42;;;2.42;;
52620;SDS011;38515;53.160;6.990;2023-02-02T07:15:09;2.80;;;2.60;;
52620;SDS011;38515;53.160;6.990;2023-02-02T07:17:35;5.20;;;3.80;;
52620;SDS011;38515;53.160;6.990;2023-02-02T07:20:01;7.05;;;3.92;;
52620;SDS011;38515;53.160;6.990;2023-02-02T07:22:27;3.00;;;2.80;;
52620;SDS011;38515;53.160;6.990;2023-02-02T07:24:53;11.05;;;4.72;;
52620;SDS011;38515;53.160;6.990;2023-02-02T07:27:19;4.35;;;3.45;;
52620;SDS011;38515;53.160;6.990;2023-02-02T07:29:45;3.22;;;2.67;;
52620;SDS011;38515;53.160;6.990;2023-02-02T07:32:11;4.75;;;2.50;;
52620;SDS011;38515;53.160;6.990;2023-02-02T07:34:37;5.55;;;3.20;;
52620;SDS011;38515;53.160;6.990;2023-02-02T07:37:03;3.20;;;2.85;;
52620;SDS011;38515;53.160;6.990;2023-02-02T07:39:29;3.58;;;3.28;;
52620;SDS011;38515;53.160;6.990;2023-02-02T07:41:55;11.43;;;4.68;;
52620;SDS011;38515;53.160;6.990;2023-02-02T07:44:21;6.53;;;3.17;;
52620;SDS011;38515;53.160;6.990;2023-02-02T07:46:47;4.65;;;2.95;;
52620;SDS011;38515;53.160;6.990;2023-02-02T07:49:14;3.25;;;2.63;;
52620;SDS011;38515;53.160;6.990;2023-02-02T07:51:41;12.68;;;3.25;;
52620;SDS011;38515;53.160;6.990;2023-02-02T07:54:08;3.67;;;2.50;;
52620;SDS011;38515;53.160;6.990;2023-02-02T07:56:36;2.83;;;2.63;;
52620;SDS011;38515;53.160;6.990;2023-02-02T07:59:03;6.93;;;3.28;;
52620;SDS011;38515;53.160;6.990;2023-02-02T08:01:28;8.35;;;3.60;;
52620;SDS011;38515;53.160;6.990;2023-02-02T08:03:55;17.38;;;3.38;;
52620;SDS011;38515;53.160;6.990;2023-02-02T08:06:25;15.30;;;2.55;;
52620;SDS011;38515;53.160;6.990;2023-02-02T08:08:53;5.78;;;2.70;;
52620;SDS011;38515;53.160;6.990;2023-02-02T08:11:20;4.50;;;2.55;;
52620;SDS011;38515;53.160;6.990;2023-02-02T08:13:48;7.22;;;3.15;;
52620;SDS011;38515;53.160;6.990;2023-02-02T08:16:15;5.90;;;2.78;;
52620;SDS011;38515;53.160;6.990;2023-02-02T08:18:42;12.20;;;2.95;;
52620;SDS011;38515;53.160;6.990;2023-02-02T08:21:08;4.95;;;2.90;;
52620;SDS011;38515;53.160;6.990;2023-02-02T08:23:37;6.97;;;2.70;;
52620;SDS011;38515;53.160;6.990;2023-02-02T08:26:14;7.35;;;2.72;;
52620;SDS011;38515;53.160;6.990;2023-02-02T08:28:42;18.50;;;3.10;;
52620;SDS011;38515;53.160;6.990;2023-02-02T08:31:14;2.60;;;2.40;;
52620;SDS011;38515;53.160;6.990;2023-02-02T08:33:41;6.97;;;2.90;;
52620;SDS011;38515;53.160;6.990;2023-02-02T08:36:11;3.25;;;2.03;;
52620;SDS011;38515;53.160;6.990;2023-02-02T08:38:38;9.07;;;4.90;;
52620;SDS011;38515;53.160;6.990;2023-02-02T08:41:08;7.18;;;3.10;;
52620;SDS011;38515;53.160;6.990;2023-02-02T08:43:37;17.63;;;3.28;;
52620;SDS011;38515;53.160;6.990;2023-02-02T08:46:03;10.35;;;3.25;;
52620;SDS011;38515;53.160;6.990;2023-02-02T08:48:30;6.63;;;3.47;;
52620;SDS011;38515;53.160;6.990;2023-02-02T08:50:56;9.05;;;3.45;;
52620;SDS011;38515;53.160;6.990;2023-02-02T08:53:23;8.55;;;3.60;;
52620;SDS011;38515;53.160;6.990;2023-02-02T08:56:00;9.50;;;2.35;;
52620;SDS011;38515;53.160;6.990;2023-02-02T08:58:37;6.85;;;2.70;;
52620;SDS011;38515;53.160;6.990;2023-02-02T09:01:04;3.13;;;2.90;;
52620;SDS011;38515;53.160;6.990;2023-02-02T09:03:31;3.33;;;3.10;;
52620;SDS011;38515;53.160;6.990;2023-02-02T09:05:57;7.43;;;3.03;;
52620;SDS011;38515;53.160;6.990;2023-02-02T09:08:22;7.43;;;3.50;;
52620;SDS011;38515;53.160;6.990;2023-02-02T09:10:48;2.85;;;2.70;;
52620;SDS011;38515;53.160;6.990;2023-02-02T09:13:14;3.90;;;3.22;;
52620;SDS011;38515;53.160;6.990;2023-02-02T09:15:40;3.28;;;3.03;;
52620;SDS011;38515;53.160;6.990;2023-02-02T09:18:06;2.70;;;2.50;;
52620;SDS011;38515;53.160;6.990;2023-02-02T09:20:32;2.85;;;2.63;;
52620;SDS011;38515;53.160;6.990;2023-02-02T09:22:58;5.05;;;2.78;;
52620;SDS011;38515;53.160;6.990;2023-02-02T09:25:24;3.25;;;2.28;;
52620;SDS011;38515;53.160;6.990;2023-02-02T09:27:51;3.80;;;2.28;;
52620;SDS011;38515;53.160;6.990;2023-02-02T09:30:17;7.65;;;3.03;;
52620;SDS011;38515;53.160;6.990;2023-02-02T09:32:43;4.07;;;2.22;;
52620;SDS011;38515;53.160;6.990;2023-02-02T09:35:09;3.33;;;2.38;;
52620;SDS011;38515;53.160;6.990;2023-02-02T09:37:35;2.75;;;1.73;;
52620;SDS011;38515;53.160;6.990;2023-02-02T09:40:01;9.00;;;3.10;;
52620;SDS011;38515;53.160;6.990;2023-02-02T09:45:31;4.22;;;2.42;;
52620;SDS011;38515;53.160;6.990;2023-02-02T09:50:59;9.40;;;1.90;;
52620;SDS011;38515;53.160;6.990;2023-02-02T09:56:38;8.52;;;3.60;;
52620;SDS011;38515;53.160;6.990;2023-02-02T09:59:05;4.80;;;2.47;;
52620;SDS011;38515;53.160;6.990;2023-02-02T10:01:39;6.38;;;2.63;;
52620;SDS011;38515;53.160;6.990;2023-02-02T10:04:32;5.07;;;2.83;;
52620;SDS011;38515;53.160;6.990;2023-02-02T10:07:06;2.00;;;1.90;;
52620;SDS011;38515;53.160;6.990;2023-02-02T10:14:51;5.35;;;2.92;;
52620;SDS011;38515;53.160;6.990;2023-02-02T10:19:59;5.93;;;3.00;;
52620;SDS011;38515;53.160;6.990;2023-02-02T10:22:38;3.38;;;2.05;;
52620;SDS011;38515;53.160;6.990;2023-02-02T10:25:04;5.93;;;2.85;;
52620;SDS011;38515;53.160;6.990;2023-02-02T10:27:36;3.85;;;2.67;;
52620;SDS011;38515;53.160;6.990;2023-02-02T10:30:07;2.83;;;2.15;;
52620;SDS011;38515;53.160;6.990;2023-02-02T10:32:58;3.35;;;2.20;;
52620;SDS011;38515;53.160;6.990;2023-02-02T10:35:37;3.90;;;2.92;;
52620;SDS011;38515;53.160;6.990;2023-02-02T10:48:45;3.70;;;2.28;;
52620;SDS011;38515;53.160;6.990;2023-02-02T10:51:22;5.32;;;1.70;;
52620;SDS011;38515;53.160;6.990;2023-02-02T10:53:52;2.90;;;1.95;;
52620;SDS011;38515;53.160;6.990;2023-02-02T10:56:39;5.25;;;2.45;;
52620;SDS011;38515;53.160;6.990;2023-02-02T11:01:39;3.67;;;2.33;;
52620;SDS011;38515;53.160;6.990;2023-02-02T11:04:05;3.22;;;2.22;;
52620;SDS011;38515;53.160;6.990;2023-02-02T11:06:52;7.65;;;2.75;;
52620;SDS011;38515;53.160;6.990;2023-02-02T11:09:20;4.05;;;2.80;;
52620;SDS011;38515;53.160;6.990;2023-02-02T11:11:54;1.95;;;1.85;;
52620;SDS011;38515;53.160;6.990;2023-02-02T11:14:29;7.15;;;2.75;;
52620;SDS011;38515;53.160;6.990;2023-02-02T11:17:03;4.97;;;2.65;;
52620;SDS011;38515;53.160;6.990;2023-02-02T11:19:33;4.53;;;2.33;;
52620;SDS011;38515;53.160;6.990;2023-02-02T11:22:01;6.05;;;3.10;;
52620;SDS011;38515;53.160;6.990;2023-02-02T11:24:28;5.75;;;2.72;;
52620;SDS011;38515;53.160;6.990;2023-02-02T11:27:06;5.90;;;2.17;;
52620;SDS011;38515;53.160;6.990;2023-02-02T11:29:41;4.45;;;3.28;;
52620;SDS011;38515;53.160;6.990;2023-02-02T11:37:26;10.65;;;2.58;;
52620;SDS011;38515;53.160;6.990;2023-02-02T11:39:52;7.70;;;3.08;;
52620;SDS011;38515;53.160;6.990;2023-02-02T11:42:19;2.25;;;2.13;;
52620;SDS011;38515;53.160;6.990;2023-02-02T11:44:56;6.65;;;3.40;;
52620;SDS011;38515;53.160;6.990;2023-02-02T11:47:30;6.30;;;3.08;;
52620;SDS011;38515;53.160;6.990;2023-02-02T11:49:57;8.27;;;3.17;;
52620;SDS011;38515;53.160;6.990;2023-02-02T11:52:26;4.82;;;2.55;;
52620;SDS011;38515;53.160;6.990;2023-02-02T11:54:58;6.15;;;3.08;;
52620;SDS011;38515;53.160;6.990;2023-02-02T11:57:32;3.33;;;2.63;;
52620;SDS011;38515;53.160;6.990;2023-02-02T12:02:44;4.78;;;2.38;;
52620;SDS011;38515;53.160;6.990;2023-02-02T12:07:45;6.35;;;2.63;;
52620;SDS011;38515;53.160;6.990;2023-02-02T12:10:17;11.82;;;2.60;;
52620;SDS011;38515;53.160;6.990;2023-02-02T12:16:05;5.88;;;2.92;;
52620;SDS011;38515;53.160;6.990;2023-02-02T12:21:16;9.15;;;2.55;;
52620;SDS011;38515;53.160;6.990;2023-02-02T12:26:30;6.82;;;2.90;;
52620;SDS011;38515;53.160;6.990;2023-02-02T12:51:02;6.40;;;2.05;;
52620;SDS011;38515;53.160;6.990;2023-02-02T13:02:03;9.48;;;2.08;;
52620;SDS011;38515;53.160;6.990;2023-02-02T13:12:54;5.00;;;2.50;;
52620;SDS011;38515;53.160;6.990;2023-02-02T13:15:28;5.03;;;2.28;;
52620;SDS011;38515;53.160;6.990;2023-02-02T13:18:09;3.55;;;1.75;;
52620;SDS011;38515;53.160;6.990;2023-02-02T13:20:54;4.22;;;2.30;;
52620;SDS011;38515;53.160;6.990;2023-02-02T13:26:13;5.85;;;2.50;;
52620;SDS011;38515;53.160;6.990;2023-02-02T13:31:42;5.90;;;2.75;;
52620;SDS011;38515;53.160;6.990;2023-02-02T13:34:19;3.10;;;2.65;;
52620;SDS011;38515;53.160;6.990;2023-02-02T13:36:58;6.28;;;2.75;;
52620;SDS011;38515;53.160;6.990;2023-02-02T13:39:39;9.13;;;4.57;;
52620;SDS011;38515;53.160;6.990;2023-02-02T13:45:57;7.82;;;5.15;;
52620;SDS011;38515;53.160;6.990;2023-02-02T14:05:04;12.38;;;3.75;;
52620;SDS011;38515;53.160;6.990;2023-02-02T14:07:39;13.68;;;4.30;;
52620;SDS011;38515;53.160;6.990;2023-02-02T14:13:30;3.20;;;2.33;;
52620;SDS011;38515;53.160;6.990;2023-02-02T14:23:59;7.72;;;3.30;;
52620;SDS011;38515;53.160;6.990;2023-02-02T14:31:58;6.63;;;4.05;;
52620;SDS011;38515;53.160;6.990;2023-02-02T14:34:30;13.23;;;4.00;;
52620;SDS011;38515;53.160;6.990;2023-02-02T14:45:38;6.28;;;3.72;;
52620;SDS011;38515;53.160;6.990;2023-02-02T14:50:40;15.15;;;3.03;;
52620;SDS011;38515;53.160;6.990;2023-02-02T14:54:16;7.90;;;3.53;;
52620;SDS011;38515;53.160;6.990;2023-02-02T14:56:18;8.00;;;3.78;;
52620;SDS011;38515;53.160;6.990;2023-02-02T14:58:53;5.38;;;3.63;;
52620;SDS011;38515;53.160;6.990;2023-02-02T15:01:33;5.93;;;3.53;;
52620;SDS011;38515;53.160;6.990;2023-02-02T15:06:46;3.75;;;2.40;;
52620;SDS011;38515;53.160;6.990;2023-02-02T15:14:34;5.38;;;3.60;;
52620;SDS011;38515;53.160;6.990;2023-02-02T15:20:20;8.68;;;2.15;;
52620;SDS011;38515;53.160;6.990;2023-02-02T15:30:55;3.08;;;2.88;;
52620;SDS011;38515;53.160;6.990;2023-02-02T15:33:27;8.77;;;4.60;;
52620;SDS011;38515;53.160;6.990;2023-02-02T15:35:56;6.10;;;3.53;;
52620;SDS011;38515;53.160;6.990;2023-02-02T15:38:27;9.27;;;4.82;;
52620;SDS011;38515;53.160;6.990;2023-02-02T15:43:43;8.15;;;4.05;;
52620;SDS011;38515;53.160;6.990;2023-02-02T15:46:10;4.45;;;3.75;;
52620;SDS011;38515;53.160;6.990;2023-02-02T15:52:10;10.05;;;4.35;;
52620;SDS011;38515;53.160;6.990;2023-02-02T15:57:47;8.43;;;3.17;;
52620;SDS011;38515;53.160;6.990;2023-02-02T16:00:21;7.78;;;3.88;;
52620;SDS011;38515;53.160;6.990;2023-02-02T16:07:57;6.57;;;3.72;;
52620;SDS011;38515;53.160;6.990;2023-02-02T16:10:24;11.05;;;4.05;;
52620;SDS011;38515;53.160;6.990;2023-02-02T16:12:50;4.82;;;3.80;;
52620;SDS011;38515;53.160;6.990;2023-02-02T16:15:21;5.35;;;4.50;;
52620;SDS011;38515;53.160;6.990;2023-02-02T16:17:58;8.20;;;5.18;;
52620;SDS011;38515;53.160;6.990;2023-02-02T16:20:26;6.18;;;4.57;;
52620;SDS011;38515;53.160;6.990;2023-02-02T16:22:55;13.70;;;5.70;;
52620;SDS011;38515;53.160;6.990;2023-02-02T16:25:26;16.30;;;11.77;;
52620;SDS011;38515;53.160;6.990;2023-02-02T16:27:55;6.03;;;5.10;;
52620;SDS011;38515;53.160;6.990;2023-02-02T16:30:28;27.73;;;15.63;;
52620;SDS011;38515;53.160;6.990;2023-02-02T16:32:56;18.98;;;14.55;;
52620;SDS011;38515;53.160;6.990;2023-02-02T16:35:30;5.45;;;4.78;;
52620;SDS011;38515;53.160;6.990;2023-02-02T16:41:02;12.05;;;5.72;;
52620;SDS011;38515;53.160;6.990;2023-02-02T16:43:33;16.73;;;13.32;;
52620;SDS011;38515;53.160;6.990;2023-02-02T16:46:09;12.43;;;8.73;;
52620;SDS011;38515;53.160;6.990;2023-02-02T16:48:56;15.40;;;8.05;;
52620;SDS011;38515;53.160;6.990;2023-02-02T16:51:25;11.57;;;6.82;;
52620;SDS011;38515;53.160;6.990;2023-02-02T16:56:41;16.65;;;9.02;;
52620;SDS011;38515;53.160;6.990;2023-02-02T17:01:58;14.80;;;13.38;;
52620;SDS011;38515;53.160;6.990;2023-02-02T17:04:29;29.02;;;17.55;;
52620;SDS011;38515;53.160;6.990;2023-02-02T17:06:57;31.77;;;19.83;;
52620;SDS011;38515;53.160;6.990;2023-02-02T17:09:39;23.33;;;17.92;;
52620;SDS011;38515;53.160;6.990;2023-02-02T17:17:24;10.20;;;7.65;;
52620;SDS011;38515;53.160;6.990;2023-02-02T17:19:51;25.90;;;16.55;;
52620;SDS011;38515;53.160;6.990;2023-02-02T17:22:18;10.23;;;6.05;;
52620;SDS011;38515;53.160;6.990;2023-02-02T17:24:46;24.27;;;15.57;;
52620;SDS011;38515;53.160;6.990;2023-02-02T17:27:21;18.95;;;13.73;;
52620;SDS011;38515;53.160;6.990;2023-02-02T17:29:54;11.57;;;7.60;;
52620;SDS011;38515;53.160;6.990;2023-02-02T17:32:21;10.00;;;6.13;;
52620;SDS011;38515;53.160;6.990;2023-02-02T17:34:49;9.90;;;6.15;;
52620;SDS011;38515;53.160;6.990;2023-02-02T17:37:15;18.88;;;13.75;;
52620;SDS011;38515;53.160;6.990;2023-02-02T17:39:41;13.13;;;7.72;;
52620;SDS011;38515;53.160;6.990;2023-02-02T17:42:13;16.50;;;7.88;;
52620;SDS011;38515;53.160;6.990;2023-02-02T17:44:51;11.52;;;7.75;;
52620;SDS011;38515;53.160;6.990;2023-02-02T17:47:17;22.10;;;14.98;;
52620;SDS011;38515;53.160;6.990;2023-02-02T17:49:43;10.30;;;7.90;;
52620;SDS011;38515;53.160;6.990;2023-02-02T17:52:09;11.07;;;6.93;;
52620;SDS011;38515;53.160;6.990;2023-02-02T17:54:37;21.73;;;14.02;;
52620;SDS011;38515;53.160;6.990;2023-02-02T17:57:03;11.10;;;8.35;;
52620;SDS011;38515;53.160;6.990;2023-02-02T17:59:29;21.23;;;15.65;;
52620;SDS011;38515;53.160;6.990;2023-02-02T18:01:55;18.20;;;8.38;;
52620;SDS011;38515;53.160;6.990;2023-02-02T18:04:21;15.98;;;8.75;;
52620;SDS011;38515;53.160;6.990;2023-02-02T18:06:48;25.25;;;16.27;;
52620;SDS011;38515;53.160;6.990;2023-02-02T18:09:15;15.27;;;8.82;;
52620;SDS011;38515;53.160;6.990;2023-02-02T18:11:41;32.90;;;11.20;;
52620;SDS011;38515;53.160;6.990;2023-02-02T18:14:09;31.35;;;17.13;;
52620;SDS011;38515;53.160;6.990;2023-02-02T18:16:35;17.48;;;9.05;;
52620;SDS011;38515;53.160;6.990;2023-02-02T18:19:01;21.73;;;12.18;;
52620;SDS011;38515;53.160;6.990;2023-02-02T18:21:28;39.72;;;18.33;;
52620;SDS011;38515;53.160;6.990;2023-02-02T18:23:56;28.23;;;19.05;;
52620;SDS011;38515;53.160;6.990;2023-02-02T18:26:21;18.63;;;10.55;;
52620;SDS011;38515;53.160;6.990;2023-02-02T18:28:48;36.05;;;18.60;;